sensor_id;sensor_type;location;lat;lon;timestamp;P1;durP1;ratioP1;P2;durP2;ratioP2
70301;SDS011;57706;56.326;43.882;2023-05-27T00:00:06;13.77;;;8.98;;
70301;SDS011;57706;56.326;43.882;2023-05-27T00:02:35;13.50;;;9.52;;
70301;SDS011;57706;56.326;43.882;2023-05-27T00:05:01;21.00;;;10.85;;
70301;SDS011;57706;56.326;43.882;2023-05-27T00:07:31;16.15;;;11.27;;
70301;SDS011;57706;56.326;43.882;2023-05-27T00:09:58;20.02;;;11.60;;
70301;SDS011;57706;56.326;43.882;2023-05-27T00:12:24;23.05;;;12.30;;
70301;SDS011;57706;56.326;43.882;2023-05-27T00:14:50;15.75;;;10.32;;
70301;SDS011;57706;56.326;43.882;2023-05-27T00:17:16;17.48;;;11.88;;
70301;SDS011;57706;56.326;43.882;2023-05-27T00:19:43;15.20;;;10.70;;
70301;SDS011;57706;56.326;43.882;2023-05-27T00:22:11;18.85;;;10.63;;
70301;SDS011;57706;56.326;43.882;2023-05-27T00:24:38;14.88;;;9.73;;
70301;SDS011;57706;56.326;43.882;2023-05-27T00:27:06;14.30;;;10.55;;
70301;SDS011;57706;56.326;43.882;2023-05-27T00:29:34;14.25;;;10.10;;
70301;SDS011;57706;56.326;43.882;2023-05-27T00:32:01;14.55;;;9.70;;
70301;SDS011;57706;56.326;43.882;2023-05-27T00:34:31;13.52;;;10.10;;
70301;SDS011;57706;56.326;43.882;2023-05-27T00:37:00;16.55;;;9.55;;
70301;SDS011;57706;56.326;43.882;2023-05-27T00:39:26;13.18;;;9.05;;
70301;SDS011;57706;56.326;43.882;2023-05-27T00:41:53;14.40;;;10.15;;
70301;SDS011;57706;56.326;43.882;2023-05-27T00:44:19;14.35;;;9.70;;
70301;SDS011;57706;56.326;43.882;2023-05-27T00:46:45;12.20;;;9.13;;
70301;SDS011;57706;56.326;43.882;2023-05-27T00:49:13;14.15;;;9.65;;
70301;SDS011;57706;56.326;43.882;2023-05-27T00:51:39;13.07;;;9.48;;
70301;SDS011;57706;56.326;43.882;2023-05-27T00:54:06;12.90;;;9.80;;
70301;SDS011;57706;56.326;43.882;2023-05-27T00:56:33;10.07;;;8.55;;
70301;SDS011;57706;56.326;43.882;2023-05-27T00:59:00;13.35;;;9.70;;
70301;SDS011;57706;56.326;43.882;2023-05-27T01:01:26;13.98;;;9.57;;
70301;SDS011;57706;56.326;43.882;2023-05-27T01:03:52;13.63;;;8.90;;
70301;SDS011;57706;56.326;43.882;2023-05-27T01:06:28;14.98;;;9.05;;
70301;SDS011;57706;56.326;43.882;2023-05-27T01:09:20;11.20;;;9.05;;
70301;SDS011;57706;56.326;43.882;2023-05-27T01:12:02;11.27;;;8.23;;
70301;SDS011;57706;56.326;43.882;2023-05-27T01:14:37;12.23;;;8.60;;
70301;SDS011;57706;56.326;43.882;2023-05-27T01:17:05;10.98;;;8.25;;
70301;SDS011;57706;56.326;43.882;2023-05-27T01:19:36;10.40;;;7.35;;
70301;SDS011;57706;56.326;43.882;2023-05-27T01:22:14;11.82;;;8.30;;
70301;SDS011;57706;56.326;43.882;2023-05-27T01:24:41;13.88;;;8.82;;
70301;SDS011;57706;56.326;43.882;2023-05-27T01:27:08;12.10;;;8.13;;
70301;SDS011;57706;56.326;43.882;2023-05-27T01:29:39;12.13;;;8.15;;
70301;SDS011;57706;56.326;43.882;2023-05-27T01:32:15;12.95;;;8.30;;
70301;SDS011;57706;56.326;43.882;2023-05-27T01:35:02;9.88;;;7.90;;
70301;SDS011;57706;56.326;43.882;2023-05-27T01:37:40;12.00;;;7.82;;
70301;SDS011;57706;56.326;43.882;2023-05-27T01:40:07;9.73;;;7.47;;
70301;SDS011;57706;56.326;43.882;2023-05-27T01:42:35;12.88;;;7.97;;
70301;SDS011;57706;56.326;43.882;2023-05-27T01:45:05;13.77;;;7.47;;
70301;SDS011;57706;56.326;43.882;2023-05-27T01:47:32;10.20;;;7.93;;
70301;SDS011;57706;56.326;43.882;2023-05-27T01:49:58;12.57;;;8.07;;
70301;SDS011;57706;56.326;43.882;2023-05-27T01:52:27;11.20;;;8.40;;
70301;SDS011;57706;56.326;43.882;2023-05-27T01:54:52;12.52;;;8.27;;
70301;SDS011;57706;56.326;43.882;2023-05-27T01:57:18;13.38;;;8.27;;
70301;SDS011;57706;56.326;43.882;2023-05-27T01:59:45;11.60;;;7.38;;
70301;SDS011;57706;56.326;43.882;2023-05-27T02:02:11;14.75;;;7.80;;
70301;SDS011;57706;56.326;43.882;2023-05-27T02:04:37;14.70;;;8.52;;
70301;SDS011;57706;56.326;43.882;2023-05-27T02:07:03;11.23;;;7.90;;
70301;SDS011;57706;56.326;43.882;2023-05-27T02:09:29;11.05;;;7.72;;
70301;SDS011;57706;56.326;43.882;2023-05-27T02:11:55;11.20;;;7.88;;
70301;SDS011;57706;56.326;43.882;2023-05-27T02:14:21;12.68;;;7.95;;
70301;SDS011;57706;56.326;43.882;2023-05-27T02:16:47;13.70;;;8.73;;
70301;SDS011;57706;56.326;43.882;2023-05-27T02:19:34;10.25;;;8.68;;
70301;SDS011;57706;56.326;43.882;2023-05-27T02:22:00;11.07;;;8.27;;
70301;SDS011;57706;56.326;43.882;2023-05-27T02:24:26;12.88;;;8.15;;
70301;SDS011;57706;56.326;43.882;2023-05-27T02:26:52;11.13;;;8.30;;
70301;SDS011;57706;56.326;43.882;2023-05-27T02:29:18;9.55;;;8.10;;
70301;SDS011;57706;56.326;43.882;2023-05-27T02:31:44;12.50;;;8.40;;
70301;SDS011;57706;56.326;43.882;2023-05-27T02:34:10;12.30;;;7.97;;
70301;SDS011;57706;56.326;43.882;2023-05-27T02:36:35;10.02;;;8.13;;
70301;SDS011;57706;56.326;43.882;2023-05-27T02:39:01;14.95;;;8.15;;
70301;SDS011;57706;56.326;43.882;2023-05-27T02:41:28;15.63;;;7.93;;
70301;SDS011;57706;56.326;43.882;2023-05-27T02:43:54;11.57;;;8.20;;
70301;SDS011;57706;56.326;43.882;2023-05-27T02:46:20;12.85;;;8.23;;
70301;SDS011;57706;56.326;43.882;2023-05-27T02:48:46;11.95;;;8.40;;
70301;SDS011;57706;56.326;43.882;2023-05-27T02:51:12;10.52;;;8.00;;
70301;SDS011;57706;56.326;43.882;2023-05-27T02:53:38;12.30;;;7.70;;
70301;SDS011;57706;56.326;43.882;2023-05-27T02:56:04;14.07;;;8.23;;
70301;SDS011;57706;56.326;43.882;2023-05-27T02:58:30;11.85;;;8.13;;
70301;SDS011;57706;56.326;43.882;2023-05-27T03:00:56;16.17;;;8.38;;
70301;SDS011;57706;56.326;43.882;2023-05-27T03:03:22;13.40;;;8.93;;
70301;SDS011;57706;56.326;43.882;2023-05-27T03:05:49;14.23;;;8.75;;
70301;SDS011;57706;56.326;43.882;2023-05-27T03:08:15;12.55;;;8.50;;
70301;SDS011;57706;56.326;43.882;2023-05-27T03:10:41;14.07;;;8.77;;
70301;SDS011;57706;56.326;43.882;2023-05-27T03:13:07;10.88;;;8.27;;
70301;SDS011;57706;56.326;43.882;2023-05-27T03:15:33;13.45;;;8.45;;
70301;SDS011;57706;56.326;43.882;2023-05-27T03:18:00;13.65;;;8.18;;
70301;SDS011;57706;56.326;43.882;2023-05-27T03:20:30;14.50;;;8.10;;
70301;SDS011;57706;56.326;43.882;2023-05-27T03:22:56;11.43;;;8.65;;
70301;SDS011;57706;56.326;43.882;2023-05-27T03:25:22;13.63;;;8.70;;
70301;SDS011;57706;56.326;43.882;2023-05-27T03:27:48;13.15;;;8.77;;
70301;SDS011;57706;56.326;43.882;2023-05-27T03:30:16;12.90;;;9.10;;
70301;SDS011;57706;56.326;43.882;2023-05-27T03:32:48;10.90;;;8.32;;
70301;SDS011;57706;56.326;43.882;2023-05-27T03:35:17;12.23;;;8.75;;
70301;SDS011;57706;56.326;43.882;2023-05-27T03:37:45;10.98;;;8.07;;
70301;SDS011;57706;56.326;43.882;2023-05-27T03:40:11;13.02;;;8.75;;
70301;SDS011;57706;56.326;43.882;2023-05-27T03:42:38;11.27;;;7.70;;
70301;SDS011;57706;56.326;43.882;2023-05-27T03:45:04;13.55;;;8.18;;
70301;SDS011;57706;56.326;43.882;2023-05-27T03:47:33;12.50;;;7.65;;
70301;SDS011;57706;56.326;43.882;2023-05-27T03:50:01;9.27;;;7.18;;
70301;SDS011;57706;56.326;43.882;2023-05-27T03:52:31;13.73;;;7.47;;
70301;SDS011;57706;56.326;43.882;2023-05-27T03:54:57;12.50;;;7.55;;
70301;SDS011;57706;56.326;43.882;2023-05-27T03:57:22;12.38;;;7.18;;
70301;SDS011;57706;56.326;43.882;2023-05-27T03:59:48;11.85;;;7.45;;
70301;SDS011;57706;56.326;43.882;2023-05-27T04:02:14;9.63;;;6.55;;
70301;SDS011;57706;56.326;43.882;2023-05-27T04:04:40;7.05;;;5.88;;
70301;SDS011;57706;56.326;43.882;2023-05-27T04:07:06;8.13;;;5.95;;
70301;SDS011;57706;56.326;43.882;2023-05-27T04:09:33;8.23;;;5.90;;
70301;SDS011;57706;56.326;43.882;2023-05-27T04:11:59;10.82;;;5.88;;
70301;SDS011;57706;56.326;43.882;2023-05-27T04:14:25;7.85;;;5.95;;
70301;SDS011;57706;56.326;43.882;2023-05-27T04:16:51;9.50;;;6.25;;
70301;SDS011;57706;56.326;43.882;2023-05-27T04:19:18;6.78;;;5.65;;
70301;SDS011;57706;56.326;43.882;2023-05-27T04:21:44;8.57;;;5.78;;
70301;SDS011;57706;56.326;43.882;2023-05-27T04:24:11;12.57;;;6.45;;
70301;SDS011;57706;56.326;43.882;2023-05-27T04:26:37;9.45;;;6.60;;
70301;SDS011;57706;56.326;43.882;2023-05-27T04:29:04;10.82;;;6.25;;
70301;SDS011;57706;56.326;43.882;2023-05-27T04:31:35;9.38;;;5.85;;
70301;SDS011;57706;56.326;43.882;2023-05-27T04:34:05;8.43;;;6.05;;
70301;SDS011;57706;56.326;43.882;2023-05-27T04:36:33;10.65;;;6.53;;
70301;SDS011;57706;56.326;43.882;2023-05-27T04:39:02;9.18;;;6.70;;
70301;SDS011;57706;56.326;43.882;2023-05-27T04:41:31;9.80;;;6.18;;
70301;SDS011;57706;56.326;43.882;2023-05-27T04:44:16;8.65;;;6.57;;
70301;SDS011;57706;56.326;43.882;2023-05-27T04:46:44;9.00;;;6.20;;
70301;SDS011;57706;56.326;43.882;2023-05-27T04:49:11;7.57;;;5.53;;
70301;SDS011;57706;56.326;43.882;2023-05-27T04:51:37;9.48;;;6.00;;
70301;SDS011;57706;56.326;43.882;2023-05-27T04:54:04;12.05;;;8.40;;
70301;SDS011;57706;56.326;43.882;2023-05-27T04:56:33;8.82;;;6.78;;
70301;SDS011;57706;56.326;43.882;2023-05-27T04:58:59;15.13;;;7.90;;
70301;SDS011;57706;56.326;43.882;2023-05-27T05:01:33;12.85;;;7.28;;
70301;SDS011;57706;56.326;43.882;2023-05-27T05:04:25;8.75;;;7.20;;
70301;SDS011;57706;56.326;43.882;2023-05-27T05:06:58;13.27;;;7.55;;
70301;SDS011;57706;56.326;43.882;2023-05-27T05:09:25;12.60;;;8.13;;
70301;SDS011;57706;56.326;43.882;2023-05-27T05:11:51;16.30;;;9.35;;
70301;SDS011;57706;56.326;43.882;2023-05-27T05:14:17;12.38;;;8.40;;
70301;SDS011;57706;56.326;43.882;2023-05-27T05:16:44;14.68;;;9.77;;
70301;SDS011;57706;56.326;43.882;2023-05-27T05:19:10;13.98;;;9.77;;
70301;SDS011;57706;56.326;43.882;2023-05-27T05:21:38;18.90;;;9.98;;
70301;SDS011;57706;56.326;43.882;2023-05-27T05:24:05;18.50;;;9.68;;
70301;SDS011;57706;56.326;43.882;2023-05-27T05:26:32;15.43;;;9.30;;
70301;SDS011;57706;56.326;43.882;2023-05-27T05:28:59;14.98;;;9.07;;
70301;SDS011;57706;56.326;43.882;2023-05-27T05:31:25;14.93;;;8.80;;
70301;SDS011;57706;56.326;43.882;2023-05-27T05:33:54;10.52;;;8.02;;
70301;SDS011;57706;56.326;43.882;2023-05-27T05:36:20;12.77;;;8.48;;
70301;SDS011;57706;56.326;43.882;2023-05-27T05:38:56;13.00;;;7.68;;
70301;SDS011;57706;56.326;43.882;2023-05-27T05:41:23;11.48;;;7.95;;
70301;SDS011;57706;56.326;43.882;2023-05-27T05:43:49;9.63;;;7.68;;
70301;SDS011;57706;56.326;43.882;2023-05-27T05:46:15;11.85;;;8.57;;
70301;SDS011;57706;56.326;43.882;2023-05-27T05:48:42;9.85;;;7.78;;
70301;SDS011;57706;56.326;43.882;2023-05-27T05:51:11;10.32;;;6.40;;
70301;SDS011;57706;56.326;43.882;2023-05-27T05:53:39;10.20;;;6.00;;
70301;SDS011;57706;56.326;43.882;2023-05-27T05:56:05;10.05;;;7.85;;
70301;SDS011;57706;56.326;43.882;2023-05-27T05:58:31;9.77;;;7.60;;
70301;SDS011;57706;56.326;43.882;2023-05-27T06:00:57;7.82;;;6.22;;
70301;SDS011;57706;56.326;43.882;2023-05-27T06:03:30;10.85;;;6.53;;
70301;SDS011;57706;56.326;43.882;2023-05-27T06:05:58;9.70;;;6.20;;
70301;SDS011;57706;56.326;43.882;2023-05-27T06:08:24;9.15;;;6.15;;
70301;SDS011;57706;56.326;43.882;2023-05-27T06:11:02;9.60;;;6.53;;
70301;SDS011;57706;56.326;43.882;2023-05-27T06:13:31;8.90;;;5.93;;
70301;SDS011;57706;56.326;43.882;2023-05-27T06:15:58;9.68;;;6.03;;
70301;SDS011;57706;56.326;43.882;2023-05-27T06:18:24;10.27;;;6.25;;
70301;SDS011;57706;56.326;43.882;2023-05-27T06:20:50;8.43;;;5.93;;
70301;SDS011;57706;56.326;43.882;2023-05-27T06:23:17;9.88;;;6.25;;
70301;SDS011;57706;56.326;43.882;2023-05-27T06:28:39;11.32;;;6.13;;
70301;SDS011;57706;56.326;43.882;2023-05-27T06:31:05;7.82;;;6.20;;
70301;SDS011;57706;56.326;43.882;2023-05-27T06:33:30;9.82;;;5.78;;
70301;SDS011;57706;56.326;43.882;2023-05-27T06:35:56;8.40;;;6.03;;
70301;SDS011;57706;56.326;43.882;2023-05-27T06:38:22;9.88;;;5.82;;
70301;SDS011;57706;56.326;43.882;2023-05-27T06:40:50;8.68;;;5.82;;
70301;SDS011;57706;56.326;43.882;2023-05-27T06:43:17;13.35;;;5.75;;
70301;SDS011;57706;56.326;43.882;2023-05-27T06:45:53;10.32;;;5.75;;
70301;SDS011;57706;56.326;43.882;2023-05-27T06:48:27;7.38;;;5.53;;
70301;SDS011;57706;56.326;43.882;2023-05-27T06:50:53;9.50;;;5.75;;
70301;SDS011;57706;56.326;43.882;2023-05-27T06:53:19;12.55;;;6.13;;
70301;SDS011;57706;56.326;43.882;2023-05-27T06:56:04;10.77;;;5.82;;
70301;SDS011;57706;56.326;43.882;2023-05-27T06:58:49;8.57;;;6.65;;
70301;SDS011;57706;56.326;43.882;2023-05-27T07:01:17;9.43;;;5.93;;
70301;SDS011;57706;56.326;43.882;2023-05-27T07:03:51;8.65;;;6.25;;
70301;SDS011;57706;56.326;43.882;2023-05-27T07:06:25;10.80;;;6.32;;
70301;SDS011;57706;56.326;43.882;2023-05-27T07:08:53;11.18;;;6.13;;
70301;SDS011;57706;56.326;43.882;2023-05-27T07:11:22;7.78;;;5.93;;
70301;SDS011;57706;56.326;43.882;2023-05-27T07:13:50;6.60;;;5.72;;
70301;SDS011;57706;56.326;43.882;2023-05-27T07:16:20;8.52;;;6.03;;
70301;SDS011;57706;56.326;43.882;2023-05-27T07:18:47;6.68;;;6.07;;
70301;SDS011;57706;56.326;43.882;2023-05-27T07:21:13;7.72;;;5.45;;
70301;SDS011;57706;56.326;43.882;2023-05-27T07:23:39;7.80;;;6.50;;
70301;SDS011;57706;56.326;43.882;2023-05-27T07:26:25;11.68;;;6.82;;
70301;SDS011;57706;56.326;43.882;2023-05-27T07:28:53;10.35;;;6.00;;
70301;SDS011;57706;56.326;43.882;2023-05-27T07:31:27;9.35;;;5.85;;
70301;SDS011;57706;56.326;43.882;2023-05-27T07:33:58;9.38;;;5.63;;
70301;SDS011;57706;56.326;43.882;2023-05-27T07:36:24;7.75;;;5.63;;
70301;SDS011;57706;56.326;43.882;2023-05-27T07:38:50;9.77;;;5.93;;
70301;SDS011;57706;56.326;43.882;2023-05-27T07:41:16;7.22;;;4.88;;
70301;SDS011;57706;56.326;43.882;2023-05-27T07:43:43;9.82;;;5.15;;
70301;SDS011;57706;56.326;43.882;2023-05-27T07:46:09;7.13;;;4.93;;
70301;SDS011;57706;56.326;43.882;2023-05-27T07:48:38;6.03;;;5.05;;
70301;SDS011;57706;56.326;43.882;2023-05-27T07:51:04;9.85;;;5.03;;
70301;SDS011;57706;56.326;43.882;2023-05-27T07:53:30;8.00;;;4.55;;
70301;SDS011;57706;56.326;43.882;2023-05-27T07:55:56;6.22;;;4.65;;
70301;SDS011;57706;56.326;43.882;2023-05-27T07:58:22;5.95;;;4.65;;
70301;SDS011;57706;56.326;43.882;2023-05-27T08:00:59;6.10;;;4.82;;
70301;SDS011;57706;56.326;43.882;2023-05-27T08:03:26;6.95;;;5.03;;
70301;SDS011;57706;56.326;43.882;2023-05-27T08:06:05;7.35;;;4.72;;
70301;SDS011;57706;56.326;43.882;2023-05-27T08:08:41;10.90;;;4.25;;
70301;SDS011;57706;56.326;43.882;2023-05-27T08:11:43;5.85;;;4.35;;
70301;SDS011;57706;56.326;43.882;2023-05-27T08:14:32;9.57;;;5.18;;
70301;SDS011;57706;56.326;43.882;2023-05-27T08:17:16;9.63;;;4.88;;
70301;SDS011;57706;56.326;43.882;2023-05-27T08:20:02;9.07;;;5.00;;
70301;SDS011;57706;56.326;43.882;2023-05-27T08:22:52;5.97;;;4.45;;
70301;SDS011;57706;56.326;43.882;2023-05-27T08:25:32;6.35;;;4.53;;
70301;SDS011;57706;56.326;43.882;2023-05-27T08:28:16;7.47;;;5.03;;
70301;SDS011;57706;56.326;43.882;2023-05-27T08:30:43;8.75;;;4.63;;
70301;SDS011;57706;56.326;43.882;2023-05-27T08:33:14;12.48;;;4.88;;
70301;SDS011;57706;56.326;43.882;2023-05-27T08:35:40;6.57;;;4.25;;
70301;SDS011;57706;56.326;43.882;2023-05-27T08:38:06;8.48;;;4.85;;
70301;SDS011;57706;56.326;43.882;2023-05-27T08:40:37;7.18;;;4.40;;
70301;SDS011;57706;56.326;43.882;2023-05-27T08:43:04;8.23;;;5.00;;
70301;SDS011;57706;56.326;43.882;2023-05-27T08:45:32;9.13;;;4.80;;
70301;SDS011;57706;56.326;43.882;2023-05-27T08:47:59;8.25;;;4.45;;
70301;SDS011;57706;56.326;43.882;2023-05-27T08:50:33;7.13;;;4.55;;
70301;SDS011;57706;56.326;43.882;2023-05-27T08:52:58;5.38;;;4.25;;
70301;SDS011;57706;56.326;43.882;2023-05-27T08:55:26;6.75;;;4.07;;
70301;SDS011;57706;56.326;43.882;2023-05-27T08:57:56;7.70;;;4.18;;
70301;SDS011;57706;56.326;43.882;2023-05-27T09:00:25;5.32;;;4.07;;
70301;SDS011;57706;56.326;43.882;2023-05-27T09:02:53;7.70;;;4.97;;
70301;SDS011;57706;56.326;43.882;2023-05-27T09:05:28;5.22;;;4.75;;
70301;SDS011;57706;56.326;43.882;2023-05-27T09:07:54;9.70;;;4.57;;
70301;SDS011;57706;56.326;43.882;2023-05-27T09:10:21;7.40;;;4.85;;
70301;SDS011;57706;56.326;43.882;2023-05-27T09:12:47;6.05;;;5.35;;
70301;SDS011;57706;56.326;43.882;2023-05-27T09:15:12;7.30;;;5.15;;
70301;SDS011;57706;56.326;43.882;2023-05-27T09:17:42;6.82;;;4.45;;
70301;SDS011;57706;56.326;43.882;2023-05-27T09:20:09;5.22;;;4.65;;
70301;SDS011;57706;56.326;43.882;2023-05-27T09:22:38;7.45;;;4.72;;
70301;SDS011;57706;56.326;43.882;2023-05-27T09:25:04;9.60;;;5.10;;
70301;SDS011;57706;56.326;43.882;2023-05-27T09:27:31;5.15;;;4.65;;
70301;SDS011;57706;56.326;43.882;2023-05-27T09:29:58;6.85;;;5.38;;
70301;SDS011;57706;56.326;43.882;2023-05-27T09:32:32;6.22;;;4.90;;
70301;SDS011;57706;56.326;43.882;2023-05-27T09:34:59;5.68;;;4.53;;
70301;SDS011;57706;56.326;43.882;2023-05-27T09:37:29;5.72;;;4.63;;
70301;SDS011;57706;56.326;43.882;2023-05-27T09:39:58;6.68;;;5.57;;
70301;SDS011;57706;56.326;43.882;2023-05-27T09:42:25;8.07;;;5.15;;
70301;SDS011;57706;56.326;43.882;2023-05-27T09:44:51;11.70;;;5.70;;
70301;SDS011;57706;56.326;43.882;2023-05-27T09:47:20;7.60;;;5.78;;
70301;SDS011;57706;56.326;43.882;2023-05-27T09:49:48;7.00;;;5.38;;
70301;SDS011;57706;56.326;43.882;2023-05-27T09:52:17;6.38;;;5.18;;
70301;SDS011;57706;56.326;43.882;2023-05-27T09:54:44;10.55;;;4.95;;
70301;SDS011;57706;56.326;43.882;2023-05-27T09:57:10;5.78;;;4.63;;
70301;SDS011;57706;56.326;43.882;2023-05-27T09:59:37;8.73;;;4.93;;
70301;SDS011;57706;56.326;43.882;2023-05-27T10:02:04;8.43;;;4.22;;
70301;SDS011;57706;56.326;43.882;2023-05-27T10:04:32;4.53;;;4.03;;
70301;SDS011;57706;56.326;43.882;2023-05-27T10:06:59;5.90;;;4.50;;
70301;SDS011;57706;56.326;43.882;2023-05-27T10:09:26;7.55;;;5.43;;
70301;SDS011;57706;56.326;43.882;2023-05-27T10:11:52;8.75;;;5.35;;
70301;SDS011;57706;56.326;43.882;2023-05-27T10:14:19;11.88;;;6.70;;
70301;SDS011;57706;56.326;43.882;2023-05-27T10:16:57;5.10;;;4.50;;
70301;SDS011;57706;56.326;43.882;2023-05-27T10:19:23;7.30;;;5.25;;
70301;SDS011;57706;56.326;43.882;2023-05-27T10:21:49;8.13;;;5.55;;
70301;SDS011;57706;56.326;43.882;2023-05-27T10:24:17;10.23;;;4.95;;
70301;SDS011;57706;56.326;43.882;2023-05-27T10:26:45;8.25;;;5.05;;
70301;SDS011;57706;56.326;43.882;2023-05-27T10:29:14;7.00;;;5.50;;
70301;SDS011;57706;56.326;43.882;2023-05-27T10:31:45;7.47;;;5.57;;
70301;SDS011;57706;56.326;43.882;2023-05-27T10:34:12;7.50;;;5.35;;
70301;SDS011;57706;56.326;43.882;2023-05-27T10:36:39;6.72;;;5.45;;
70301;SDS011;57706;56.326;43.882;2023-05-27T10:39:05;10.20;;;5.85;;
70301;SDS011;57706;56.326;43.882;2023-05-27T10:41:51;6.70;;;4.82;;
70301;SDS011;57706;56.326;43.882;2023-05-27T10:47:13;8.82;;;4.72;;
70301;SDS011;57706;56.326;43.882;2023-05-27T10:49:39;6.07;;;4.82;;
70301;SDS011;57706;56.326;43.882;2023-05-27T10:52:15;8.43;;;4.32;;
70301;SDS011;57706;56.326;43.882;2023-05-27T10:54:43;8.38;;;5.10;;
70301;SDS011;57706;56.326;43.882;2023-05-27T10:57:18;5.60;;;4.60;;
70301;SDS011;57706;56.326;43.882;2023-05-27T11:02:15;13.57;;;5.25;;
70301;SDS011;57706;56.326;43.882;2023-05-27T11:04:41;8.02;;;5.05;;
70301;SDS011;57706;56.326;43.882;2023-05-27T11:07:07;8.80;;;5.57;;
70301;SDS011;57706;56.326;43.882;2023-05-27T11:09:43;8.93;;;5.35;;
70301;SDS011;57706;56.326;43.882;2023-05-27T11:12:13;12.32;;;6.18;;
70301;SDS011;57706;56.326;43.882;2023-05-27T11:19:39;6.55;;;5.38;;
70301;SDS011;57706;56.326;43.882;2023-05-27T11:22:09;8.13;;;5.78;;
70301;SDS011;57706;56.326;43.882;2023-05-27T11:24:36;5.95;;;5.40;;
70301;SDS011;57706;56.326;43.882;2023-05-27T11:27:12;6.72;;;5.57;;
70301;SDS011;57706;56.326;43.882;2023-05-27T11:29:39;11.05;;;5.75;;
70301;SDS011;57706;56.326;43.882;2023-05-27T11:32:05;9.95;;;5.22;;
70301;SDS011;57706;56.326;43.882;2023-05-27T11:34:35;9.20;;;6.18;;
70301;SDS011;57706;56.326;43.882;2023-05-27T11:37:02;6.57;;;5.97;;
70301;SDS011;57706;56.326;43.882;2023-05-27T11:39:32;9.23;;;5.30;;
70301;SDS011;57706;56.326;43.882;2023-05-27T11:41:58;7.63;;;5.75;;
70301;SDS011;57706;56.326;43.882;2023-05-27T11:44:25;8.75;;;5.40;;
70301;SDS011;57706;56.326;43.882;2023-05-27T11:46:52;6.35;;;5.75;;
70301;SDS011;57706;56.326;43.882;2023-05-27T11:49:25;8.25;;;6.20;;
70301;SDS011;57706;56.326;43.882;2023-05-27T11:51:50;9.27;;;5.80;;
70301;SDS011;57706;56.326;43.882;2023-05-27T11:54:21;11.13;;;5.95;;
70301;SDS011;57706;56.326;43.882;2023-05-27T11:56:48;12.23;;;5.70;;
70301;SDS011;57706;56.326;43.882;2023-05-27T11:59:16;16.65;;;6.07;;
70301;SDS011;57706;56.326;43.882;2023-05-27T12:01:43;6.95;;;6.03;;
70301;SDS011;57706;56.326;43.882;2023-05-27T12:04:09;9.20;;;6.40;;
70301;SDS011;57706;56.326;43.882;2023-05-27T12:06:35;10.23;;;6.60;;
70301;SDS011;57706;56.326;43.882;2023-05-27T12:09:03;10.25;;;7.10;;
70301;SDS011;57706;56.326;43.882;2023-05-27T12:11:33;7.75;;;6.10;;
70301;SDS011;57706;56.326;43.882;2023-05-27T12:14:00;19.35;;;6.32;;
70301;SDS011;57706;56.326;43.882;2023-05-27T12:16:26;12.63;;;6.43;;
70301;SDS011;57706;56.326;43.882;2023-05-27T12:18:52;12.32;;;7.63;;
70301;SDS011;57706;56.326;43.882;2023-05-27T12:21:18;10.85;;;6.75;;
70301;SDS011;57706;56.326;43.882;2023-05-27T12:23:47;8.00;;;6.55;;
70301;SDS011;57706;56.326;43.882;2023-05-27T12:26:14;10.18;;;6.78;;
70301;SDS011;57706;56.326;43.882;2023-05-27T12:28:41;7.15;;;6.07;;
70301;SDS011;57706;56.326;43.882;2023-05-27T12:31:07;6.25;;;5.68;;
70301;SDS011;57706;56.326;43.882;2023-05-27T12:33:34;9.30;;;5.65;;
70301;SDS011;57706;56.326;43.882;2023-05-27T12:36:00;8.00;;;6.05;;
70301;SDS011;57706;56.326;43.882;2023-05-27T12:38:26;15.40;;;6.47;;
70301;SDS011;57706;56.326;43.882;2023-05-27T12:40:52;7.25;;;5.95;;
70301;SDS011;57706;56.326;43.882;2023-05-27T12:43:20;12.55;;;6.70;;
70301;SDS011;57706;56.326;43.882;2023-05-27T12:45:46;11.45;;;6.00;;
70301;SDS011;57706;56.326;43.882;2023-05-27T12:48:13;19.25;;;6.78;;
70301;SDS011;57706;56.326;43.882;2023-05-27T12:50:39;12.32;;;6.80;;
70301;SDS011;57706;56.326;43.882;2023-05-27T12:53:05;12.02;;;6.40;;
70301;SDS011;57706;56.326;43.882;2023-05-27T12:55:33;10.63;;;6.57;;
70301;SDS011;57706;56.326;43.882;2023-05-27T12:57:59;9.05;;;6.47;;
70301;SDS011;57706;56.326;43.882;2023-05-27T13:00:25;11.45;;;6.28;;
70301;SDS011;57706;56.326;43.882;2023-05-27T13:02:51;13.30;;;7.00;;
70301;SDS011;57706;56.326;43.882;2023-05-27T13:05:18;10.45;;;7.40;;
70301;SDS011;57706;56.326;43.882;2023-05-27T13:07:54;11.23;;;7.50;;
70301;SDS011;57706;56.326;43.882;2023-05-27T13:10:21;16.75;;;8.15;;
70301;SDS011;57706;56.326;43.882;2023-05-27T13:12:47;15.25;;;8.05;;
70301;SDS011;57706;56.326;43.882;2023-05-27T13:15:13;11.85;;;7.90;;
70301;SDS011;57706;56.326;43.882;2023-05-27T13:17:42;12.38;;;8.77;;
70301;SDS011;57706;56.326;43.882;2023-05-27T13:20:12;11.35;;;7.05;;
70301;SDS011;57706;56.326;43.882;2023-05-27T13:22:40;12.93;;;7.15;;
70301;SDS011;57706;56.326;43.882;2023-05-27T13:25:06;10.25;;;6.72;;
70301;SDS011;57706;56.326;43.882;2023-05-27T13:27:33;10.00;;;6.78;;
70301;SDS011;57706;56.326;43.882;2023-05-27T13:29:59;9.88;;;6.70;;
70301;SDS011;57706;56.326;43.882;2023-05-27T13:32:25;9.93;;;7.43;;
70301;SDS011;57706;56.326;43.882;2023-05-27T13:34:51;8.80;;;6.80;;
70301;SDS011;57706;56.326;43.882;2023-05-27T13:37:17;11.15;;;7.93;;
70301;SDS011;57706;56.326;43.882;2023-05-27T13:39:43;11.60;;;7.65;;
70301;SDS011;57706;56.326;43.882;2023-05-27T13:42:10;11.07;;;8.18;;
70301;SDS011;57706;56.326;43.882;2023-05-27T13:44:36;12.32;;;8.55;;
70301;SDS011;57706;56.326;43.882;2023-05-27T13:47:02;12.68;;;9.27;;
70301;SDS011;57706;56.326;43.882;2023-05-27T13:49:28;12.32;;;8.30;;
70301;SDS011;57706;56.326;43.882;2023-05-27T13:51:54;10.35;;;7.72;;
70301;SDS011;57706;56.326;43.882;2023-05-27T13:54:20;10.95;;;8.25;;
70301;SDS011;57706;56.326;43.882;2023-05-27T13:56:46;10.10;;;7.05;;
70301;SDS011;57706;56.326;43.882;2023-05-27T13:59:12;12.75;;;7.53;;
70301;SDS011;57706;56.326;43.882;2023-05-27T14:01:40;11.55;;;7.28;;
70301;SDS011;57706;56.326;43.882;2023-05-27T14:04:08;8.57;;;7.30;;
70301;SDS011;57706;56.326;43.882;2023-05-27T14:06:34;11.57;;;8.55;;
70301;SDS011;57706;56.326;43.882;2023-05-27T14:09:01;9.85;;;8.25;;
70301;SDS011;57706;56.326;43.882;2023-05-27T14:11:27;10.25;;;8.38;;
70301;SDS011;57706;56.326;43.882;2023-05-27T14:13:53;9.77;;;8.27;;
70301;SDS011;57706;56.326;43.882;2023-05-27T14:16:22;14.82;;;10.50;;
70301;SDS011;57706;56.326;43.882;2023-05-27T14:18:49;10.65;;;7.95;;
70301;SDS011;57706;56.326;43.882;2023-05-27T14:21:15;14.18;;;8.15;;
70301;SDS011;57706;56.326;43.882;2023-05-27T14:23:42;8.85;;;7.60;;
70301;SDS011;57706;56.326;43.882;2023-05-27T14:26:09;7.60;;;6.80;;
70301;SDS011;57706;56.326;43.882;2023-05-27T14:28:35;9.10;;;7.18;;
70301;SDS011;57706;56.326;43.882;2023-05-27T14:31:01;11.23;;;7.60;;
70301;SDS011;57706;56.326;43.882;2023-05-27T14:33:27;9.95;;;7.65;;
70301;SDS011;57706;56.326;43.882;2023-05-27T14:35:53;12.20;;;7.97;;
70301;SDS011;57706;56.326;43.882;2023-05-27T14:38:19;11.98;;;7.88;;
70301;SDS011;57706;56.326;43.882;2023-05-27T14:40:46;10.60;;;8.20;;
70301;SDS011;57706;56.326;43.882;2023-05-27T14:43:12;12.38;;;8.77;;
70301;SDS011;57706;56.326;43.882;2023-05-27T14:45:40;14.85;;;10.20;;